sensor_id;sensor_type;location;lat;lon;timestamp;P1;durP1;ratioP1;P2;durP2;ratioP2
22752;SDS011;11543;43.144;24.684;2023-06-14T00:00:58;14.05;;;8.73;;
22752;SDS011;11543;43.144;24.684;2023-06-14T00:03:23;11.02;;;8.80;;
22752;SDS011;11543;43.144;24.684;2023-06-14T00:05:49;12.82;;;9.35;;
22752;SDS011;11543;43.144;24.684;2023-06-14T00:08:15;16.10;;;10.50;;
22752;SDS011;11543;43.144;24.684;2023-06-14T00:10:41;13.80;;;9.90;;
22752;SDS011;11543;43.144;24.684;2023-06-14T00:13:07;13.07;;;9.27;;
22752;SDS011;11543;43.144;24.684;2023-06-14T00:15:34;14.88;;;9.23;;
22752;SDS011;11543;43.144;24.684;2023-06-14T00:18:00;17.00;;;10.52;;
22752;SDS011;11543;43.144;24.684;2023-06-14T00:20:26;14.82;;;10.00;;
22752;SDS011;11543;43.144;24.684;2023-06-14T00:22:55;16.20;;;10.30;;
22752;SDS011;11543;43.144;24.684;2023-06-14T00:25:24;17.70;;;9.73;;
22752;SDS011;11543;43.144;24.684;2023-06-14T00:27:50;17.63;;;10.90;;
22752;SDS011;11543;43.144;24.684;2023-06-14T00:30:17;13.75;;;9.18;;
22752;SDS011;11543;43.144;24.684;2023-06-14T00:32:43;18.48;;;10.38;;
22752;SDS011;11543;43.144;24.684;2023-06-14T00:35:09;16.88;;;9.50;;
22752;SDS011;11543;43.144;24.684;2023-06-14T00:37:35;14.55;;;9.93;;
22752;SDS011;11543;43.144;24.684;2023-06-14T00:40:01;13.52;;;9.35;;
22752;SDS011;11543;43.144;24.684;2023-06-14T00:42:27;11.98;;;9.82;;
22752;SDS011;11543;43.144;24.684;2023-06-14T00:44:53;19.45;;;9.98;;
22752;SDS011;11543;43.144;24.684;2023-06-14T00:47:19;13.70;;;9.13;;
22752;SDS011;11543;43.144;24.684;2023-06-14T00:49:46;15.07;;;9.10;;
22752;SDS011;11543;43.144;24.684;2023-06-14T00:52:13;12.63;;;8.35;;
22752;SDS011;11543;43.144;24.684;2023-06-14T00:54:40;10.48;;;8.20;;
22752;SDS011;11543;43.144;24.684;2023-06-14T00:57:07;14.00;;;8.23;;
22752;SDS011;11543;43.144;24.684;2023-06-14T00:59:32;11.07;;;7.38;;
22752;SDS011;11543;43.144;24.684;2023-06-14T01:02:00;15.15;;;7.70;;
22752;SDS011;11543;43.144;24.684;2023-06-14T01:04:25;9.63;;;6.68;;
22752;SDS011;11543;43.144;24.684;2023-06-14T01:06:59;12.32;;;7.35;;
22752;SDS011;11543;43.144;24.684;2023-06-14T01:09:55;10.35;;;7.07;;
22752;SDS011;11543;43.144;24.684;2023-06-14T01:12:36;10.23;;;6.88;;
22752;SDS011;11543;43.144;24.684;2023-06-14T01:15:06;14.07;;;6.68;;
22752;SDS011;11543;43.144;24.684;2023-06-14T01:17:32;9.50;;;6.90;;
22752;SDS011;11543;43.144;24.684;2023-06-14T01:20:01;11.05;;;6.95;;
22752;SDS011;11543;43.144;24.684;2023-06-14T01:22:28;14.10;;;7.32;;
22752;SDS011;11543;43.144;24.684;2023-06-14T01:24:53;14.43;;;7.10;;
22752;SDS011;11543;43.144;24.684;2023-06-14T01:27:23;13.60;;;6.90;;
22752;SDS011;11543;43.144;24.684;2023-06-14T01:29:53;14.57;;;7.30;;
22752;SDS011;11543;43.144;24.684;2023-06-14T01:32:22;19.08;;;7.20;;
22752;SDS011;11543;43.144;24.684;2023-06-14T01:34:51;14.23;;;7.15;;
22752;SDS011;11543;43.144;24.684;2023-06-14T01:37:17;11.07;;;7.00;;
22752;SDS011;11543;43.144;24.684;2023-06-14T01:39:43;10.52;;;7.53;;
22752;SDS011;11543;43.144;24.684;2023-06-14T01:42:10;11.20;;;7.25;;
22752;SDS011;11543;43.144;24.684;2023-06-14T01:44:38;8.98;;;7.30;;
22752;SDS011;11543;43.144;24.684;2023-06-14T01:47:04;9.55;;;6.60;;
22752;SDS011;11543;43.144;24.684;2023-06-14T01:49:33;8.70;;;6.45;;
22752;SDS011;11543;43.144;24.684;2023-06-14T01:52:00;12.70;;;6.55;;
22752;SDS011;11543;43.144;24.684;2023-06-14T01:54:25;8.80;;;5.43;;
22752;SDS011;11543;43.144;24.684;2023-06-14T01:56:52;9.75;;;5.13;;
22752;SDS011;11543;43.144;24.684;2023-06-14T01:59:18;10.65;;;5.03;;
22752;SDS011;11543;43.144;24.684;2023-06-14T02:01:43;9.25;;;4.78;;
22752;SDS011;11543;43.144;24.684;2023-06-14T02:04:11;7.82;;;4.65;;
22752;SDS011;11543;43.144;24.684;2023-06-14T02:06:37;6.57;;;4.65;;
22752;SDS011;11543;43.144;24.684;2023-06-14T02:09:03;6.70;;;4.20;;
22752;SDS011;11543;43.144;24.684;2023-06-14T02:11:29;9.23;;;4.72;;
22752;SDS011;11543;43.144;24.684;2023-06-14T02:13:54;6.78;;;4.30;;
22752;SDS011;11543;43.144;24.684;2023-06-14T02:16:21;6.97;;;4.03;;
22752;SDS011;11543;43.144;24.684;2023-06-14T02:18:47;8.55;;;3.88;;
22752;SDS011;11543;43.144;24.684;2023-06-14T02:21:13;6.50;;;4.10;;
22752;SDS011;11543;43.144;24.684;2023-06-14T02:23:39;5.32;;;3.70;;
22752;SDS011;11543;43.144;24.684;2023-06-14T02:26:05;7.05;;;3.92;;
22752;SDS011;11543;43.144;24.684;2023-06-14T02:28:31;5.15;;;3.53;;
22752;SDS011;11543;43.144;24.684;2023-06-14T02:30:56;5.97;;;3.63;;
22752;SDS011;11543;43.144;24.684;2023-06-14T02:33:22;6.65;;;3.92;;
22752;SDS011;11543;43.144;24.684;2023-06-14T02:35:47;7.72;;;4.25;;
22752;SDS011;11543;43.144;24.684;2023-06-14T02:38:13;7.78;;;4.45;;
22752;SDS011;11543;43.144;24.684;2023-06-14T02:40:38;6.18;;;3.92;;
22752;SDS011;11543;43.144;24.684;2023-06-14T02:43:07;6.18;;;4.05;;
22752;SDS011;11543;43.144;24.684;2023-06-14T02:45:32;7.20;;;3.85;;
22752;SDS011;11543;43.144;24.684;2023-06-14T02:47:58;7.22;;;4.30;;
22752;SDS011;11543;43.144;24.684;2023-06-14T02:50:23;9.38;;;3.80;;
22752;SDS011;11543;43.144;24.684;2023-06-14T02:52:49;6.72;;;4.13;;
22752;SDS011;11543;43.144;24.684;2023-06-14T02:55:15;5.53;;;3.42;;
22752;SDS011;11543;43.144;24.684;2023-06-14T02:57:40;7.90;;;4.22;;
22752;SDS011;11543;43.144;24.684;2023-06-14T03:00:06;5.50;;;3.78;;
22752;SDS011;11543;43.144;24.684;2023-06-14T03:02:35;5.45;;;3.75;;
22752;SDS011;11543;43.144;24.684;2023-06-14T03:05:00;4.72;;;3.50;;
22752;SDS011;11543;43.144;24.684;2023-06-14T03:07:28;6.78;;;4.00;;
22752;SDS011;11543;43.144;24.684;2023-06-14T03:09:54;4.43;;;3.58;;
22752;SDS011;11543;43.144;24.684;2023-06-14T03:12:20;6.05;;;3.72;;
22752;SDS011;11543;43.144;24.684;2023-06-14T03:14:46;6.20;;;3.78;;
22752;SDS011;11543;43.144;24.684;2023-06-14T03:17:11;5.30;;;3.67;;
22752;SDS011;11543;43.144;24.684;2023-06-14T03:19:37;8.35;;;3.65;;
22752;SDS011;11543;43.144;24.684;2023-06-14T03:22:03;5.15;;;3.55;;
22752;SDS011;11543;43.144;24.684;2023-06-14T03:24:28;8.45;;;3.55;;
22752;SDS011;11543;43.144;24.684;2023-06-14T03:26:54;5.57;;;3.65;;
22752;SDS011;11543;43.144;24.684;2023-06-14T03:29:20;4.40;;;3.45;;
22752;SDS011;11543;43.144;24.684;2023-06-14T03:31:56;6.40;;;3.53;;
22752;SDS011;11543;43.144;24.684;2023-06-14T03:34:23;5.22;;;3.30;;
22752;SDS011;11543;43.144;24.684;2023-06-14T03:36:48;4.07;;;3.40;;
22752;SDS011;11543;43.144;24.684;2023-06-14T03:39:14;6.90;;;3.38;;
22752;SDS011;11543;43.144;24.684;2023-06-14T03:41:40;5.05;;;3.40;;
22752;SDS011;11543;43.144;24.684;2023-06-14T03:44:05;4.85;;;3.25;;
22752;SDS011;11543;43.144;24.684;2023-06-14T03:46:31;4.63;;;3.13;;
22752;SDS011;11543;43.144;24.684;2023-06-14T03:48:56;4.63;;;3.38;;
22752;SDS011;11543;43.144;24.684;2023-06-14T03:51:22;8.48;;;3.28;;
22752;SDS011;11543;43.144;24.684;2023-06-14T03:53:48;9.73;;;3.53;;
22752;SDS011;11543;43.144;24.684;2023-06-14T03:56:13;6.22;;;3.47;;
22752;SDS011;11543;43.144;24.684;2023-06-14T03:58:39;5.15;;;3.22;;
22752;SDS011;11543;43.144;24.684;2023-06-14T04:01:05;4.97;;;3.50;;
22752;SDS011;11543;43.144;24.684;2023-06-14T04:03:32;5.75;;;3.40;;
22752;SDS011;11543;43.144;24.684;2023-06-14T04:05:58;6.93;;;3.60;;
22752;SDS011;11543;43.144;24.684;2023-06-14T04:08:24;8.40;;;4.80;;
22752;SDS011;11543;43.144;24.684;2023-06-14T04:10:50;8.98;;;4.82;;
22752;SDS011;11543;43.144;24.684;2023-06-14T04:13:16;7.97;;;4.47;;
22752;SDS011;11543;43.144;24.684;2023-06-14T04:15:42;6.38;;;4.32;;
22752;SDS011;11543;43.144;24.684;2023-06-14T04:18:08;5.90;;;4.90;;
22752;SDS011;11543;43.144;24.684;2023-06-14T04:20:34;6.47;;;5.47;;
22752;SDS011;11543;43.144;24.684;2023-06-14T04:23:21;6.53;;;5.28;;
22752;SDS011;11543;43.144;24.684;2023-06-14T04:25:46;7.70;;;5.45;;
22752;SDS011;11543;43.144;24.684;2023-06-14T04:28:13;7.50;;;5.35;;
22752;SDS011;11543;43.144;24.684;2023-06-14T04:30:41;7.13;;;5.55;;
22752;SDS011;11543;43.144;24.684;2023-06-14T04:33:07;10.35;;;5.07;;
22752;SDS011;11543;43.144;24.684;2023-06-14T04:35:34;14.07;;;6.07;;
22752;SDS011;11543;43.144;24.684;2023-06-14T04:38:01;7.65;;;5.10;;
22752;SDS011;11543;43.144;24.684;2023-06-14T04:43:51;9.40;;;6.55;;
22752;SDS011;11543;43.144;24.684;2023-06-14T04:49:40;11.95;;;6.57;;
22752;SDS011;11543;43.144;24.684;2023-06-14T04:55:27;12.55;;;5.65;;
22752;SDS011;11543;43.144;24.684;2023-06-14T05:01:14;7.18;;;5.05;;
22752;SDS011;11543;43.144;24.684;2023-06-14T05:07:01;8.23;;;5.53;;
22752;SDS011;11543;43.144;24.684;2023-06-14T05:12:49;8.48;;;5.13;;
22752;SDS011;11543;43.144;24.684;2023-06-14T05:18:36;12.13;;;5.70;;
22752;SDS011;11543;43.144;24.684;2023-06-14T05:24:24;12.15;;;5.88;;
22752;SDS011;11543;43.144;24.684;2023-06-14T05:30:12;8.50;;;5.82;;
22752;SDS011;11543;43.144;24.684;2023-06-14T05:42:55;13.03;;;6.43;;
22752;SDS011;11543;43.144;24.684;2023-06-14T05:45:21;11.27;;;6.28;;
22752;SDS011;11543;43.144;24.684;2023-06-14T05:47:46;12.55;;;6.30;;
22752;SDS011;11543;43.144;24.684;2023-06-14T05:50:12;12.85;;;7.18;;
22752;SDS011;11543;43.144;24.684;2023-06-14T05:52:38;9.40;;;6.10;;
22752;SDS011;11543;43.144;24.684;2023-06-14T05:55:04;11.48;;;5.63;;
22752;SDS011;11543;43.144;24.684;2023-06-14T05:57:31;10.85;;;5.82;;
22752;SDS011;11543;43.144;24.684;2023-06-14T05:59:57;11.52;;;5.60;;
22752;SDS011;11543;43.144;24.684;2023-06-14T06:02:23;10.02;;;5.60;;
22752;SDS011;11543;43.144;24.684;2023-06-14T06:04:52;13.02;;;6.10;;
22752;SDS011;11543;43.144;24.684;2023-06-14T06:07:19;10.30;;;6.88;;
22752;SDS011;11543;43.144;24.684;2023-06-14T06:09:44;13.88;;;7.88;;
22752;SDS011;11543;43.144;24.684;2023-06-14T06:12:10;13.98;;;6.28;;
22752;SDS011;11543;43.144;24.684;2023-06-14T06:14:36;12.38;;;6.63;;
22752;SDS011;11543;43.144;24.684;2023-06-14T06:17:02;22.15;;;8.23;;
22752;SDS011;11543;43.144;24.684;2023-06-14T06:19:29;12.18;;;7.82;;
22752;SDS011;11543;43.144;24.684;2023-06-14T06:21:55;21.88;;;11.60;;
22752;SDS011;11543;43.144;24.684;2023-06-14T06:24:20;21.10;;;10.48;;
22752;SDS011;11543;43.144;24.684;2023-06-14T06:26:46;21.17;;;10.60;;
22752;SDS011;11543;43.144;24.684;2023-06-14T06:29:11;20.25;;;10.55;;
22752;SDS011;11543;43.144;24.684;2023-06-14T06:31:37;18.83;;;10.13;;
22752;SDS011;11543;43.144;24.684;2023-06-14T06:34:02;16.98;;;8.40;;
22752;SDS011;11543;43.144;24.684;2023-06-14T06:36:28;17.80;;;10.25;;
22752;SDS011;11543;43.144;24.684;2023-06-14T06:38:53;15.55;;;10.10;;
22752;SDS011;11543;43.144;24.684;2023-06-14T06:41:19;14.05;;;8.45;;
22752;SDS011;11543;43.144;24.684;2023-06-14T06:43:44;15.52;;;9.20;;
22752;SDS011;11543;43.144;24.684;2023-06-14T06:46:10;14.48;;;7.93;;
22752;SDS011;11543;43.144;24.684;2023-06-14T06:48:35;14.13;;;8.25;;
22752;SDS011;11543;43.144;24.684;2023-06-14T06:51:01;13.02;;;8.40;;
22752;SDS011;11543;43.144;24.684;2023-06-14T06:53:26;14.05;;;7.50;;
22752;SDS011;11543;43.144;24.684;2023-06-14T06:55:52;13.75;;;8.10;;
22752;SDS011;11543;43.144;24.684;2023-06-14T06:58:17;17.08;;;8.27;;
22752;SDS011;11543;43.144;24.684;2023-06-14T07:00:43;12.10;;;7.25;;
22752;SDS011;11543;43.144;24.684;2023-06-14T07:03:08;14.63;;;7.80;;
22752;SDS011;11543;43.144;24.684;2023-06-14T07:05:34;13.60;;;7.78;;
22752;SDS011;11543;43.144;24.684;2023-06-14T07:07:59;15.70;;;7.93;;
22752;SDS011;11543;43.144;24.684;2023-06-14T07:10:25;14.88;;;6.95;;
22752;SDS011;11543;43.144;24.684;2023-06-14T07:12:50;15.20;;;7.03;;
22752;SDS011;11543;43.144;24.684;2023-06-14T07:15:16;12.13;;;6.40;;
22752;SDS011;11543;43.144;24.684;2023-06-14T07:17:42;10.38;;;6.32;;
22752;SDS011;11543;43.144;24.684;2023-06-14T07:20:07;14.10;;;6.40;;
22752;SDS011;11543;43.144;24.684;2023-06-14T07:22:36;11.73;;;5.60;;
22752;SDS011;11543;43.144;24.684;2023-06-14T07:25:09;11.07;;;5.50;;
22752;SDS011;11543;43.144;24.684;2023-06-14T07:27:35;11.43;;;5.40;;
22752;SDS011;11543;43.144;24.684;2023-06-14T07:30:00;11.30;;;5.45;;
22752;SDS011;11543;43.144;24.684;2023-06-14T07:32:26;8.30;;;4.95;;
22752;SDS011;11543;43.144;24.684;2023-06-14T07:34:51;10.45;;;5.78;;
22752;SDS011;11543;43.144;24.684;2023-06-14T07:37:17;10.23;;;5.97;;
22752;SDS011;11543;43.144;24.684;2023-06-14T07:39:42;13.15;;;5.93;;
22752;SDS011;11543;43.144;24.684;2023-06-14T07:42:08;9.15;;;5.30;;
22752;SDS011;11543;43.144;24.684;2023-06-14T07:44:33;10.43;;;6.45;;
22752;SDS011;11543;43.144;24.684;2023-06-14T07:46:59;10.10;;;5.43;;
22752;SDS011;11543;43.144;24.684;2023-06-14T07:49:25;10.52;;;5.30;;
22752;SDS011;11543;43.144;24.684;2023-06-14T07:51:51;9.75;;;5.53;;
22752;SDS011;11543;43.144;24.684;2023-06-14T07:54:16;7.38;;;5.10;;
22752;SDS011;11543;43.144;24.684;2023-06-14T07:56:42;8.40;;;4.60;;
22752;SDS011;11543;43.144;24.684;2023-06-14T07:59:08;11.88;;;5.53;;
22752;SDS011;11543;43.144;24.684;2023-06-14T08:01:34;9.70;;;5.50;;
22752;SDS011;11543;43.144;24.684;2023-06-14T08:04:00;10.48;;;6.40;;
22752;SDS011;11543;43.144;24.684;2023-06-14T08:06:26;7.70;;;4.50;;
22752;SDS011;11543;43.144;24.684;2023-06-14T08:08:51;5.70;;;4.15;;
22752;SDS011;11543;43.144;24.684;2023-06-14T08:11:17;10.30;;;5.35;;
22752;SDS011;11543;43.144;24.684;2023-06-14T08:13:42;9.18;;;5.43;;
22752;SDS011;11543;43.144;24.684;2023-06-14T08:16:08;5.82;;;4.13;;
22752;SDS011;11543;43.144;24.684;2023-06-14T08:18:34;10.55;;;6.22;;
22752;SDS011;11543;43.144;24.684;2023-06-14T08:21:00;7.95;;;4.32;;
22752;SDS011;11543;43.144;24.684;2023-06-14T08:23:25;9.30;;;4.38;;
22752;SDS011;11543;43.144;24.684;2023-06-14T08:25:51;6.72;;;4.78;;
22752;SDS011;11543;43.144;24.684;2023-06-14T08:28:17;8.90;;;5.32;;
22752;SDS011;11543;43.144;24.684;2023-06-14T08:30:43;7.97;;;4.75;;
22752;SDS011;11543;43.144;24.684;2023-06-14T08:33:08;6.93;;;3.78;;
22752;SDS011;11543;43.144;24.684;2023-06-14T08:35:34;9.80;;;5.03;;
22752;SDS011;11543;43.144;24.684;2023-06-14T08:38:04;9.20;;;5.00;;
22752;SDS011;11543;43.144;24.684;2023-06-14T08:40:30;8.48;;;4.32;;
22752;SDS011;11543;43.144;24.684;2023-06-14T08:42:57;8.25;;;4.57;;
22752;SDS011;11543;43.144;24.684;2023-06-14T08:45:23;7.30;;;4.13;;
22752;SDS011;11543;43.144;24.684;2023-06-14T08:47:53;9.13;;;4.07;;
22752;SDS011;11543;43.144;24.684;2023-06-14T08:50:22;7.78;;;3.80;;
22752;SDS011;11543;43.144;24.684;2023-06-14T08:52:55;6.18;;;4.03;;
22752;SDS011;11543;43.144;24.684;2023-06-14T08:55:25;10.23;;;4.05;;
22752;SDS011;11543;43.144;24.684;2023-06-14T08:57:55;7.95;;;4.57;;
22752;SDS011;11543;43.144;24.684;2023-06-14T09:00:25;8.68;;;3.70;;
22752;SDS011;11543;43.144;24.684;2023-06-14T09:02:52;6.47;;;4.18;;
22752;SDS011;11543;43.144;24.684;2023-06-14T09:05:28;6.22;;;3.70;;
22752;SDS011;11543;43.144;24.684;2023-06-14T09:08:00;6.18;;;3.47;;
22752;SDS011;11543;43.144;24.684;2023-06-14T09:10:25;6.22;;;3.88;;
22752;SDS011;11543;43.144;24.684;2023-06-14T09:12:52;5.13;;;3.60;;
22752;SDS011;11543;43.144;24.684;2023-06-14T09:15:18;6.82;;;3.70;;
22752;SDS011;11543;43.144;24.684;2023-06-14T09:17:44;6.28;;;3.45;;
22752;SDS011;11543;43.144;24.684;2023-06-14T09:20:10;7.82;;;3.70;;
22752;SDS011;11543;43.144;24.684;2023-06-14T09:22:39;4.85;;;3.42;;
22752;SDS011;11543;43.144;24.684;2023-06-14T09:25:06;8.67;;;3.77;;
22752;SDS011;11543;43.144;24.684;2023-06-14T09:27:32;5.90;;;3.70;;
22752;SDS011;11543;43.144;24.684;2023-06-14T09:29:58;7.63;;;3.95;;
22752;SDS011;11543;43.144;24.684;2023-06-14T09:32:24;6.43;;;3.22;;
22752;SDS011;11543;43.144;24.684;2023-06-14T09:34:50;6.78;;;3.90;;
22752;SDS011;11543;43.144;24.684;2023-06-14T09:37:31;6.18;;;3.35;;
22752;SDS011;11543;43.144;24.684;2023-06-14T09:39:58;5.70;;;4.10;;
22752;SDS011;11543;43.144;24.684;2023-06-14T09:42:24;7.22;;;4.57;;
22752;SDS011;11543;43.144;24.684;2023-06-14T09:44:51;7.10;;;4.75;;
22752;SDS011;11543;43.144;24.684;2023-06-14T09:47:18;9.07;;;4.70;;
22752;SDS011;11543;43.144;24.684;2023-06-14T09:49:43;7.30;;;3.92;;
22752;SDS011;11543;43.144;24.684;2023-06-14T09:52:19;4.85;;;3.55;;
22752;SDS011;11543;43.144;24.684;2023-06-14T09:54:47;8.88;;;3.90;;
22752;SDS011;11543;43.144;24.684;2023-06-14T09:57:21;7.88;;;4.03;;
22752;SDS011;11543;43.144;24.684;2023-06-14T09:59:47;6.63;;;3.60;;
22752;SDS011;11543;43.144;24.684;2023-06-14T10:04:44;6.18;;;3.20;;
22752;SDS011;11543;43.144;24.684;2023-06-14T10:07:13;5.10;;;2.85;;
22752;SDS011;11543;43.144;24.684;2023-06-14T10:09:44;7.18;;;3.28;;
22752;SDS011;11543;43.144;24.684;2023-06-14T10:12:15;6.78;;;3.10;;
22752;SDS011;11543;43.144;24.684;2023-06-14T10:14:47;4.72;;;2.92;;
22752;SDS011;11543;43.144;24.684;2023-06-14T10:17:20;6.25;;;3.35;;
22752;SDS011;11543;43.144;24.684;2023-06-14T10:19:53;5.65;;;3.40;;
22752;SDS011;11543;43.144;24.684;2023-06-14T10:25:12;6.00;;;3.60;;
22752;SDS011;11543;43.144;24.684;2023-06-14T10:27:50;7.90;;;3.75;;
22752;SDS011;11543;43.144;24.684;2023-06-14T10:30:16;4.68;;;3.28;;
22752;SDS011;11543;43.144;24.684;2023-06-14T10:35:32;5.05;;;2.97;;
22752;SDS011;11543;43.144;24.684;2023-06-14T10:38:13;5.15;;;2.92;;
22752;SDS011;11543;43.144;24.684;2023-06-14T10:40:39;4.65;;;3.28;;
22752;SDS011;11543;43.144;24.684;2023-06-14T10:43:22;5.65;;;3.25;;
22752;SDS011;11543;43.144;24.684;2023-06-14T10:48:41;6.47;;;3.67;;
22752;SDS011;11543;43.144;24.684;2023-06-14T10:51:20;6.10;;;3.60;;
22752;SDS011;11543;43.144;24.684;2023-06-14T10:53:46;12.27;;;3.85;;
22752;SDS011;11543;43.144;24.684;2023-06-14T10:56:29;4.88;;;3.42;;
22752;SDS011;11543;43.144;24.684;2023-06-14T10:58:59;5.43;;;3.22;;
22752;SDS011;11543;43.144;24.684;2023-06-14T11:04:23;5.13;;;3.50;;
22752;SDS011;11543;43.144;24.684;2023-06-14T11:07:10;5.32;;;3.70;;
22752;SDS011;11543;43.144;24.684;2023-06-14T11:12:29;5.00;;;3.03;;
22752;SDS011;11543;43.144;24.684;2023-06-14T11:14:58;6.40;;;3.50;;
22752;SDS011;11543;43.144;24.684;2023-06-14T11:17:24;8.43;;;3.35;;
22752;SDS011;11543;43.144;24.684;2023-06-14T11:19:50;4.30;;;3.00;;
22752;SDS011;11543;43.144;24.684;2023-06-14T11:22:15;6.40;;;3.17;;
22752;SDS011;11543;43.144;24.684;2023-06-14T11:24:42;5.57;;;2.92;;
22752;SDS011;11543;43.144;24.684;2023-06-14T11:27:09;6.78;;;3.22;;
22752;SDS011;11543;43.144;24.684;2023-06-14T11:29:34;7.10;;;3.45;;
22752;SDS011;11543;43.144;24.684;2023-06-14T11:31:59;7.40;;;3.35;;
22752;SDS011;11543;43.144;24.684;2023-06-14T11:34:25;5.68;;;3.42;;
22752;SDS011;11543;43.144;24.684;2023-06-14T11:36:51;5.55;;;3.33;;
22752;SDS011;11543;43.144;24.684;2023-06-14T11:39:16;4.95;;;3.00;;
22752;SDS011;11543;43.144;24.684;2023-06-14T11:41:42;3.65;;;2.85;;
22752;SDS011;11543;43.144;24.684;2023-06-14T11:44:09;5.35;;;3.10;;
22752;SDS011;11543;43.144;24.684;2023-06-14T11:46:36;3.75;;;3.17;;
22752;SDS011;11543;43.144;24.684;2023-06-14T11:49:02;4.85;;;2.75;;
22752;SDS011;11543;43.144;24.684;2023-06-14T11:51:32;6.22;;;3.20;;
22752;SDS011;11543;43.144;24.684;2023-06-14T11:54:00;5.53;;;3.05;;
22752;SDS011;11543;43.144;24.684;2023-06-14T11:56:27;4.15;;;3.33;;
22752;SDS011;11543;43.144;24.684;2023-06-14T11:58:53;4.00;;;3.20;;
22752;SDS011;11543;43.144;24.684;2023-06-14T12:01:22;4.85;;;3.30;;
22752;SDS011;11543;43.144;24.684;2023-06-14T12:03:48;4.85;;;2.80;;
22752;SDS011;11543;43.144;24.684;2023-06-14T12:06:25;5.28;;;3.00;;
22752;SDS011;11543;43.144;24.684;2023-06-14T12:08:58;6.22;;;3.33;;
22752;SDS011;11543;43.144;24.684;2023-06-14T12:11:23;6.47;;;3.22;;
22752;SDS011;11543;43.144;24.684;2023-06-14T12:13:53;4.90;;;3.40;;
22752;SDS011;11543;43.144;24.684;2023-06-14T12:16:18;4.20;;;3.40;;
22752;SDS011;11543;43.144;24.684;2023-06-14T12:18:44;6.03;;;3.50;;
22752;SDS011;11543;43.144;24.684;2023-06-14T12:21:10;4.88;;;3.60;;
22752;SDS011;11543;43.144;24.684;2023-06-14T12:26:14;4.57;;;3.55;;
22752;SDS011;11543;43.144;24.684;2023-06-14T12:28:47;5.82;;;3.50;;
22752;SDS011;11543;43.144;24.684;2023-06-14T12:31:16;5.63;;;3.25;;
22752;SDS011;11543;43.144;24.684;2023-06-14T12:33:41;4.90;;;3.25;;
22752;SDS011;11543;43.144;24.684;2023-06-14T12:36:08;5.53;;;3.40;;
22752;SDS011;11543;43.144;24.684;2023-06-14T12:38:35;7.05;;;3.47;;
22752;SDS011;11543;43.144;24.684;2023-06-14T12:41:01;5.72;;;3.78;;
22752;SDS011;11543;43.144;24.684;2023-06-14T12:43:27;6.10;;;3.30;;
22752;SDS011;11543;43.144;24.684;2023-06-14T12:45:53;4.88;;;3.38;;
22752;SDS011;11543;43.144;24.684;2023-06-14T12:48:19;4.47;;;3.20;;
22752;SDS011;11543;43.144;24.684;2023-06-14T12:50:44;3.75;;;3.13;;
22752;SDS011;11543;43.144;24.684;2023-06-14T12:53:10;5.05;;;3.10;;
22752;SDS011;11543;43.144;24.684;2023-06-14T12:55:36;4.93;;;3.30;;
22752;SDS011;11543;43.144;24.684;2023-06-14T12:58:01;4.72;;;3.13;;
22752;SDS011;11543;43.144;24.684;2023-06-14T13:00:27;6.53;;;3.40;;
22752;SDS011;11543;43.144;24.684;2023-06-14T13:02:55;4.38;;;3.22;;
22752;SDS011;11543;43.144;24.684;2023-06-14T13:05:20;5.90;;;2.83;;
22752;SDS011;11543;43.144;24.684;2023-06-14T13:07:46;4.75;;;3.13;;
22752;SDS011;11543;43.144;24.684;2023-06-14T13:10:12;5.13;;;2.95;;
22752;SDS011;11543;43.144;24.684;2023-06-14T13:12:37;5.45;;;3.20;;
22752;SDS011;11543;43.144;24.684;2023-06-14T13:15:03;4.05;;;3.22;;
22752;SDS011;11543;43.144;24.684;2023-06-14T13:17:29;5.00;;;4.25;;
22752;SDS011;11543;43.144;24.684;2023-06-14T13:19:54;11.15;;;6.90;;
22752;SDS011;11543;43.144;24.684;2023-06-14T13:22:20;13.90;;;8.45;;
22752;SDS011;11543;43.144;24.684;2023-06-14T13:24:45;14.23;;;7.90;;
22752;SDS011;11543;43.144;24.684;2023-06-14T13:27:11;10.05;;;5.50;;
22752;SDS011;11543;43.144;24.684;2023-06-14T13:29:40;11.40;;;5.55;;
22752;SDS011;11543;43.144;24.684;2023-06-14T13:32:05;21.13;;;11.55;;
22752;SDS011;11543;43.144;24.684;2023-06-14T13:34:31;11.52;;;4.82;;
22752;SDS011;11543;43.144;24.684;2023-06-14T13:36:57;8.95;;;5.80;;
22752;SDS011;11543;43.144;24.684;2023-06-14T13:39:24;8.27;;;4.80;;
22752;SDS011;11543;43.144;24.684;2023-06-14T13:41:50;9.82;;;5.30;;
22752;SDS011;11543;43.144;24.684;2023-06-14T13:44:16;6.72;;;4.55;;
22752;SDS011;11543;43.144;24.684;2023-06-14T13:46:44;6.22;;;4.35;;
22752;SDS011;11543;43.144;24.684;2023-06-14T13:49:09;6.35;;;4.30;;
22752;SDS011;11543;43.144;24.684;2023-06-14T13:51:35;8.30;;;4.20;;
22752;SDS011;11543;43.144;24.684;2023-06-14T13:54:01;6.68;;;4.18;;
22752;SDS011;11543;43.144;24.684;2023-06-14T13:56:26;5.88;;;4.05;;
22752;SDS011;11543;43.144;24.684;2023-06-14T13:58:52;8.23;;;4.20;;
22752;SDS011;11543;43.144;24.684;2023-06-14T14:01:18;5.55;;;3.80;;
22752;SDS011;11543;43.144;24.684;2023-06-14T14:03:45;7.10;;;3.80;;
22752;SDS011;11543;43.144;24.684;2023-06-14T14:06:11;6.57;;;3.70;;
22752;SDS011;11543;43.144;24.684;2023-06-14T14:08:38;4.72;;;3.60;;
22752;SDS011;11543;43.144;24.684;2023-06-14T14:11:04;7.00;;;4.30;;
22752;SDS011;11543;43.144;24.684;2023-06-14T14:13:31;5.32;;;3.67;;
22752;SDS011;11543;43.144;24.684;2023-06-14T14:15:56;5.93;;;3.40;;
22752;SDS011;11543;43.144;24.684;2023-06-14T14:18:22;6.88;;;3.88;;
22752;SDS011;11543;43.144;24.684;2023-06-14T14:20:48;8.40;;;4.40;;
22752;SDS011;11543;43.144;24.684;2023-06-14T14:23:14;6.75;;;4.40;;
22752;SDS011;11543;43.144;24.684;2023-06-14T14:25:40;7.18;;;4.30;;
22752;SDS011;11543;43.144;24.684;2023-06-14T14:28:06;7.22;;;4.50;;
22752;SDS011;11543;43.144;24.684;2023-06-14T14:30:31;8.82;;;5.45;;
22752;SDS011;11543;43.144;24.684;2023-06-14T14:32:57;9.05;;;4.65;;
22752;SDS011;11543;43.144;24.684;2023-06-14T14:35:23;7.10;;;4.28;;
22752;SDS011;11543;43.144;24.684;2023-06-14T14:37:51;5.85;;;3.45;;
22752;SDS011;11543;43.144;24.684;2023-06-14T14:40:17;6.70;;;4.00;;
22752;SDS011;11543;43.144;24.684;2023-06-14T14:42:42;8.38;;;4.00;;
22752;SDS011;11543;43.144;24.684;2023-06-14T14:45:08;5.57;;;3.72;;
22752;SDS011;11543;43.144;24.684;2023-06-14T14:47:33;7.38;;;3.20;;
22752;SDS011;11543;43.144;24.684;2023-06-14T14:49:59;3.50;;;2.30;;
22752;SDS011;11543;43.144;24.684;2023-06-14T14:52:25;4.65;;;2.72;;
22752;SDS011;11543;43.144;24.684;2023-06-14T14:54:51;3.35;;;2.10;;
22752;SDS011;11543;43.144;24.684;2023-06-14T14:57:18;3.58;;;2.47;;
22752;SDS011;11543;43.144;24.684;2023-06-14T14:59:43;3.92;;;2.10;;
22752;SDS011;11543;43.144;24.684;2023-06-14T15:02:09;3.53;;;2.00;;
22752;SDS011;11543;43.144;24.684;2023-06-14T15:04:35;3.70;;;1.92;;
22752;SDS011;11543;43.144;24.684;2023-06-14T15:07:00;3.17;;;2.30;;
22752;SDS011;11543;43.144;24.684;2023-06-14T15:09:26;3.55;;;2.35;;
22752;SDS011;11543;43.144;24.684;2023-06-14T15:11:51;7.15;;;3.28;;
22752;SDS011;11543;43.144;24.684;2023-06-14T15:14:17;6.20;;;3.10;;
22752;SDS011;11543;43.144;24.684;2023-06-14T15:16:42;8.43;;;3.53;;
22752;SDS011;11543;43.144;24.684;2023-06-14T15:19:08;5.38;;;3.25;;
22752;SDS011;11543;43.144;24.684;2023-06-14T15:21:33;5.10;;;2.95;;
22752;SDS011;11543;43.144;24.684;2023-06-14T15:23:59;5.35;;;3.00;;
22752;SDS011;11543;43.144;24.684;2023-06-14T15:26:24;5.28;;;2.83;;
22752;SDS011;11543;43.144;24.684;2023-06-14T15:28:50;5.70;;;3.00;;